Pagrindinis puslapis
METAR-TAF:

METAR-TAF

Oro uostai :

Splitas, Kroatija

platuma: 43-32N, ilguma: 016-18E, Aukštis: 19 m

Dabartinis oras

Ataskaita buvo paskelbta 37 minutes, ne 19:00 UTC
Vėjas 11 kt iš Šiaurės Rytų, svyruoja nuo Šiaurės ir Rytų/Šiaurės Rytų
Temperatūra 19°C
Drėgmė 37%
Slėgis 1018 hPa
Matomumas 10 km arba daugiau
Mažai debesys ne aukštis 6500 ft

METAR: LDSP 191900Z 04011KT 010V070 9999 FEW065 19/04 Q1018 TEMPO 04015G25KT

Laikas: 21:37 (19:37 UTC)

Prognozė

Ataskaita buvo paskelbta 2 valandos ir 12 minutes, ne 17:25 UTC
Prognozė galioja nuo 19 metu 18 UTC su 20 metu 18 UTC
Vėjas 12 kt iš Šiaurės Rytų
Matomumas 10 km arba daugiau
nėra debesų žemiau 1500 m ir nėra kamuolinių lietaus debesų
Laikinai
nuo 19 metu 18 UTC su 20 metu 08 UTC
Vėjas 15 kt iš Šiaurės Rytų su gūsio iki 25 kt
Tikimybė 40% :
Laikinai
nuo 20 metu 12 UTC su 20 metu 16 UTC
Vėjas 8 kt iš Pietvakarių

TAF: LDSP 191725Z 1918/2018 04012KT CAVOK TX25/2013Z TN13/2005Z TEMPO 1918/2008 04015G25KT PROB40 TEMPO 2012/2016 23008KT

Orai ataskaitas ir orų prognozės (METAR, TAF).

turimą stotys yra geltonos ir raudonos taškus žemėlapyje.

Perkelti pele per norėdami pamatyti stoties vardą.

Tada spustelėkite, norėdami matyti oro stebėjimo ir prognozės.

Norėdami pakeisti žemėlapį: spustelėkite ant žalios mygtukų su juodo kryžiaus žemyn,; žalią mygtuką su brūkšneliu, jei norite nutolinti; arba žalių rodyklių gretimoms žemėlapius.


METAR-TAF: